createdAt,value
2018-03-27T00:02:09.117Z,29.77
2018-03-27T00:04:36.613Z,28.90
2018-03-27T00:07:04.174Z,29.27
2018-03-27T00:09:31.698Z,30.40
2018-03-27T00:11:59.228Z,29.50
2018-03-27T00:14:27.636Z,29.00
2018-03-27T00:16:55.145Z,28.03
2018-03-27T00:19:23.611Z,29.57
2018-03-27T00:21:51.115Z,29.07
2018-03-27T00:24:18.639Z,28.87
2018-03-27T00:26:58.240Z,27.50
2018-03-27T00:29:37.608Z,31.37
2018-03-27T00:32:17.016Z,31.67
2018-03-27T00:34:56.438Z,33.60
2018-03-27T00:37:35.923Z,34.47
2018-03-27T00:40:15.276Z,38.07
2018-03-27T00:42:48.680Z,39.53
2018-03-27T00:45:16.208Z,40.77
2018-03-27T00:47:43.706Z,40.17
2018-03-27T00:50:11.229Z,41.10
2018-03-27T00:52:38.728Z,42.20
2018-03-27T00:55:06.261Z,43.53
2018-03-27T00:57:33.756Z,42.60
2018-03-27T01:00:01.376Z,41.87
2018-03-27T03:39:52.485Z,41.77
2018-03-27T03:42:19.987Z,43.03
2018-03-27T03:44:47.517Z,48.40
2018-03-27T03:47:15.007Z,48.27
2018-03-27T03:49:42.526Z,46.37
2018-03-27T03:52:10.034Z,39.50
2018-03-27T03:54:37.555Z,45.67
2018-03-27T03:57:05.041Z,46.37
2018-03-27T03:59:32.644Z,45.90
2018-03-27T04:02:00.188Z,43.77
2018-03-27T04:04:27.705Z,44.87
2018-03-27T04:06:55.206Z,45.13
2018-03-27T04:09:22.751Z,46.07
2018-03-27T04:11:50.250Z,45.20
2018-03-27T04:14:17.764Z,46.07
2018-03-27T04:16:45.285Z,45.23
2018-03-27T04:19:12.812Z,45.83
2018-03-27T04:21:40.344Z,44.63
2018-03-27T04:24:07.845Z,45.73
2018-03-27T04:26:35.363Z,45.30
2018-03-27T04:29:02.871Z,47.13
2018-03-27T04:31:30.398Z,44.57
2018-03-27T04:33:57.984Z,45.50
2018-03-27T04:36:25.495Z,45.33
2018-03-27T04:38:53.036Z,45.47
2018-03-27T04:41:20.548Z,46.20
2018-03-27T04:43:48.097Z,46.97
2018-03-27T04:46:15.623Z,46.70
2018-03-27T04:48:43.124Z,46.07
2018-03-27T04:51:10.859Z,45.87
2018-03-27T04:53:38.353Z,44.77
2018-03-27T04:56:05.925Z,44.90
2018-03-27T04:58:33.428Z,44.00
2018-03-27T05:01:00.944Z,42.63
2018-03-27T05:03:28.446Z,45.03
2018-03-27T05:05:55.984Z,46.60
2018-03-27T05:08:23.490Z,45.30
2018-03-27T05:10:51.023Z,39.23
2018-03-27T05:13:18.526Z,40.43
2018-03-27T05:15:46.071Z,42.07
2018-03-27T05:18:13.564Z,39.17
2018-03-27T05:20:41.081Z,40.57
2018-03-27T05:23:09.540Z,38.57
2018-03-27T05:25:37.086Z,40.57
2018-03-27T05:28:04.585Z,39.37
2018-03-27T05:30:32.107Z,39.00
2018-03-27T05:32:59.644Z,39.10
2018-03-27T05:35:29.063Z,37.77
2018-03-27T05:37:56.765Z,38.10
2018-03-27T05:40:24.416Z,36.60
2018-03-27T05:42:51.922Z,38.83
2018-03-27T05:45:21.380Z,36.63
2018-03-27T05:47:48.883Z,37.63
2018-03-27T05:50:16.375Z,37.30
2018-03-27T05:52:43.893Z,38.23
2018-03-27T05:55:11.405Z,38.83
2018-03-27T05:57:38.916Z,38.57
2018-03-27T06:00:07.326Z,38.90
2018-03-27T06:02:34.849Z,39.27
2018-03-27T06:05:02.336Z,38.07
2018-03-27T06:07:30.037Z,38.77
2018-03-27T06:09:57.531Z,38.60
2018-03-27T06:12:25.961Z,44.60
2018-03-27T06:14:53.476Z,44.50
2018-03-27T06:17:20.997Z,36.23
2018-03-27T06:19:48.511Z,36.40
2018-03-27T06:22:16.021Z,37.40
2018-03-27T06:24:43.536Z,35.80
2018-03-27T06:27:11.132Z,37.33
2018-03-27T06:29:38.630Z,36.07
2018-03-27T06:32:06.158Z,37.33
2018-03-27T06:34:33.652Z,38.00
2018-03-27T06:37:01.175Z,36.20
2018-03-27T06:39:28.842Z,34.97
2018-03-27T06:41:56.357Z,37.30
2018-03-27T06:44:23.844Z,37.23
2018-03-27T06:46:51.370Z,38.30
2018-03-27T06:49:18.965Z,36.43
2018-03-27T06:51:46.529Z,34.87
2018-03-27T06:54:14.045Z,34.30
2018-03-27T06:56:41.543Z,34.60
2018-03-27T06:59:09.131Z,36.40
2018-03-27T07:01:36.590Z,36.87
2018-03-27T07:04:04.110Z,33.23
2018-03-27T07:06:31.730Z,34.03
2018-03-27T07:08:59.239Z,31.97
2018-03-27T07:11:26.735Z,35.13
2018-03-27T07:13:54.265Z,33.13
2018-03-27T07:16:21.776Z,33.83
2018-03-27T07:18:49.292Z,33.90
2018-03-27T07:21:16.857Z,35.40
2018-03-27T07:23:44.611Z,38.27
2018-03-27T07:26:12.124Z,36.67
2018-03-27T07:28:39.640Z,39.77
2018-03-27T07:31:07.152Z,36.40
2018-03-27T07:33:34.671Z,38.23
2018-03-27T07:36:02.219Z,36.73
2018-03-27T07:38:29.757Z,39.30
2018-03-27T07:40:57.287Z,35.67
2018-03-27T07:43:24.816Z,36.93
2018-03-27T07:45:52.315Z,37.03
2018-03-27T07:48:19.836Z,36.67
2018-03-27T07:50:47.372Z,35.87
2018-03-27T07:53:14.904Z,36.40
2018-03-27T07:55:42.416Z,37.50
2018-03-27T07:58:09.978Z,37.00
2018-03-27T08:00:37.483Z,36.60
2018-03-27T08:03:04.999Z,37.00
2018-03-27T08:05:32.531Z,35.60
2018-03-27T08:08:00.084Z,36.43
2018-03-27T08:10:27.591Z,34.67
2018-03-27T08:12:55.287Z,36.53
2018-03-27T08:15:22.799Z,36.07
2018-03-27T08:17:50.311Z,36.00
2018-03-27T08:20:18.782Z,36.87
2018-03-27T08:22:46.278Z,36.73
2018-03-27T08:25:13.820Z,35.30
2018-03-27T08:27:41.323Z,36.63
2018-03-27T08:30:08.877Z,38.70
2018-03-27T08:32:36.395Z,36.93
2018-03-27T08:35:03.980Z,36.53
2018-03-27T08:37:31.481Z,37.20
2018-03-27T08:39:59.048Z,35.53
2018-03-27T08:42:26.606Z,35.17
2018-03-27T08:44:54.185Z,34.60
2018-03-27T08:47:21.675Z,36.87
2018-03-27T08:49:49.248Z,36.20
2018-03-27T08:52:16.786Z,36.40
2018-03-27T08:54:44.328Z,35.83
2018-03-27T08:57:11.868Z,35.70
2018-03-27T08:59:39.427Z,34.97
2018-03-27T09:02:06.965Z,35.57
2018-03-27T09:04:34.489Z,34.63
2018-03-27T09:07:02.007Z,35.37
2018-03-27T09:09:29.519Z,32.90
2018-03-27T09:11:57.043Z,33.77
2018-03-27T09:14:24.676Z,32.10
2018-03-27T09:16:52.199Z,31.30
2018-03-27T09:19:19.739Z,32.27
2018-03-27T09:21:47.256Z,33.27
2018-03-27T09:24:14.777Z,36.10
2018-03-27T09:26:42.277Z,32.17
2018-03-27T09:29:09.799Z,33.03
2018-03-27T09:31:37.295Z,33.27
2018-03-27T09:34:04.807Z,33.37
2018-03-27T09:36:32.340Z,30.83
2018-03-27T09:38:59.835Z,30.73
2018-03-27T09:41:27.362Z,31.73
2018-03-27T09:43:54.864Z,30.53
2018-03-27T09:46:22.410Z,30.30
2018-03-27T09:48:49.898Z,30.30
2018-03-27T09:51:17.411Z,28.17
2018-03-27T09:53:44.922Z,28.77
2018-03-27T09:56:12.436Z,27.70
2018-03-27T09:58:39.951Z,28.33
2018-03-27T10:01:09.406Z,26.90
2018-03-27T10:03:36.919Z,27.23
2018-03-27T10:06:04.502Z,27.27
2018-03-27T10:08:32.021Z,24.20
2018-03-27T10:10:59.539Z,23.70
2018-03-27T10:13:27.048Z,22.70
2018-03-27T10:15:54.584Z,21.98
2018-03-27T10:18:22.147Z,23.17
2018-03-27T10:20:49.675Z,25.35
2018-03-27T10:23:17.176Z,24.02
2018-03-27T10:25:44.724Z,22.90
2018-03-27T10:28:12.260Z,18.60
2018-03-27T10:30:39.785Z,16.92
2018-03-27T10:33:07.351Z,18.87
2018-03-27T10:35:34.836Z,19.58
2018-03-27T10:38:02.782Z,18.60
2018-03-27T10:40:30.340Z,18.37
2018-03-27T10:42:57.903Z,16.80
2018-03-27T10:45:25.449Z,15.87
2018-03-27T10:47:53.000Z,16.07
2018-03-27T10:50:20.592Z,15.87
2018-03-27T10:52:48.127Z,16.90
2018-03-27T10:55:15.624Z,16.97
2018-03-27T10:57:43.157Z,16.93
2018-03-27T11:00:10.667Z,17.73
2018-03-27T11:02:38.267Z,15.30
2018-03-27T11:05:05.764Z,14.65
2018-03-27T11:07:33.387Z,14.07
2018-03-27T11:10:00.969Z,14.23
2018-03-27T11:12:28.448Z,14.13
2018-03-27T11:14:57.103Z,13.43
2018-03-27T11:17:24.612Z,13.38
2018-03-27T11:19:52.150Z,12.32
2018-03-27T11:22:19.733Z,11.63
2018-03-27T11:24:47.234Z,12.83
2018-03-27T11:27:14.765Z,12.93
2018-03-27T11:29:42.266Z,14.13
2018-03-27T11:32:09.816Z,13.80
2018-03-27T11:34:37.374Z,13.63
2018-03-27T11:37:04.924Z,13.63
2018-03-27T11:39:32.420Z,13.63
2018-03-27T11:41:59.935Z,14.57
2018-03-27T11:44:27.460Z,13.90
2018-03-27T11:46:54.974Z,12.43
2018-03-27T11:49:22.489Z,13.87
2018-03-27T11:51:50.048Z,13.87
2018-03-27T11:54:17.576Z,13.77
2018-03-27T11:56:45.063Z,13.37
2018-03-27T11:59:12.631Z,13.33
2018-03-27T12:01:40.120Z,14.07
2018-03-27T12:04:07.669Z,13.83
2018-03-27T12:06:35.164Z,15.03
2018-03-27T12:09:02.685Z,13.80
2018-03-27T12:11:30.200Z,14.03
2018-03-27T12:13:57.818Z,14.13
2018-03-27T12:16:25.335Z,15.17
2018-03-27T12:18:52.852Z,14.77
2018-03-27T12:21:20.355Z,14.23
2018-03-27T12:23:47.885Z,14.10
2018-03-27T12:26:15.382Z,14.87
2018-03-27T12:28:47.069Z,14.07
2018-03-27T12:31:14.721Z,14.47
2018-03-27T12:33:43.147Z,14.30
2018-03-27T12:36:10.631Z,14.50
2018-03-27T12:38:40.151Z,14.30
2018-03-27T12:41:07.713Z,15.03
2018-03-27T12:43:35.194Z,16.67
2018-03-27T12:46:02.692Z,15.20
2018-03-27T12:48:30.300Z,15.03
2018-03-27T12:50:57.795Z,15.47
2018-03-27T12:53:28.616Z,15.07
2018-03-27T12:55:56.115Z,14.83
2018-03-27T12:58:23.626Z,14.50
2018-03-27T13:00:51.125Z,14.03
2018-03-27T13:03:18.659Z,13.77
2018-03-27T13:05:46.186Z,14.47
2018-03-27T13:08:13.767Z,14.43
2018-03-27T13:10:41.288Z,13.73
2018-03-27T13:13:08.820Z,15.00
2018-03-27T13:15:36.307Z,14.00
2018-03-27T13:18:03.828Z,14.60
2018-03-27T13:20:31.330Z,13.50
2018-03-27T13:22:58.871Z,14.13
2018-03-27T13:25:26.400Z,14.43
2018-03-27T13:27:54.956Z,14.03
2018-03-27T13:30:22.486Z,13.40
2018-03-27T13:32:49.975Z,14.53
2018-03-27T13:35:17.552Z,13.73
2018-03-27T13:37:45.043Z,14.63
2018-03-27T13:40:12.555Z,13.30
2018-03-27T13:42:40.070Z,13.73
2018-03-27T13:45:07.590Z,13.97
2018-03-27T13:47:35.081Z,14.57
2018-03-27T13:50:02.608Z,14.60
2018-03-27T13:52:30.238Z,13.43
2018-03-27T13:54:57.749Z,13.63
2018-03-27T13:57:25.241Z,14.13
2018-03-27T13:59:52.763Z,13.93
2018-03-27T14:02:20.367Z,13.47
2018-03-27T14:04:47.937Z,16.07
2018-03-27T14:07:15.439Z,13.33
2018-03-27T14:09:43.497Z,13.27
2018-03-27T14:12:10.996Z,13.57
2018-03-27T14:14:38.576Z,13.93
2018-03-27T14:17:06.087Z,13.37
2018-03-27T14:19:33.603Z,13.30
2018-03-27T14:22:01.109Z,12.17
2018-03-27T14:24:28.629Z,12.03
2018-03-27T14:26:56.140Z,12.63
2018-03-27T14:29:23.668Z,12.73
2018-03-27T14:31:51.228Z,12.47
2018-03-27T14:34:18.736Z,11.47
2018-03-27T14:36:46.259Z,12.57
2018-03-27T14:39:14.718Z,11.20
2018-03-27T14:41:42.244Z,10.40
2018-03-27T14:44:09.755Z,14.57
2018-03-27T14:46:37.271Z,14.93
2018-03-27T14:49:04.768Z,16.17
2018-03-27T14:51:32.296Z,13.23
2018-03-27T14:53:59.843Z,13.27
2018-03-27T14:56:27.404Z,13.77
2018-03-27T14:58:54.906Z,15.30
2018-03-27T15:01:22.422Z,16.20
2018-03-27T15:03:49.930Z,16.17
2018-03-27T15:06:17.453Z,16.30
2018-03-27T15:08:44.981Z,15.90
2018-03-27T15:11:12.511Z,15.80
2018-03-27T15:13:40.037Z,14.60
2018-03-27T15:16:07.560Z,16.13
2018-03-27T15:18:35.117Z,16.23
2018-03-27T15:21:03.638Z,14.57
2018-03-27T15:23:31.143Z,15.07
2018-03-27T15:25:58.692Z,14.50
2018-03-27T15:28:26.192Z,13.50
2018-03-27T15:30:53.727Z,14.53
2018-03-27T15:33:21.229Z,14.63
2018-03-27T15:35:48.793Z,14.07
2018-03-27T15:38:16.303Z,14.47
2018-03-27T15:40:43.951Z,14.67
2018-03-27T15:43:11.496Z,15.80
2018-03-27T15:45:39.004Z,17.13
2018-03-27T15:48:06.522Z,15.57
2018-03-27T15:50:34.338Z,14.53
2018-03-27T15:53:01.828Z,15.47
2018-03-27T15:55:29.331Z,16.70
2018-03-27T15:57:56.854Z,15.37
2018-03-27T16:00:24.381Z,17.67
2018-03-27T16:02:52.021Z,11.47
2018-03-27T16:05:19.587Z,13.50
2018-03-27T16:07:47.107Z,10.97
2018-03-27T16:10:14.783Z,12.20
2018-03-27T16:12:42.299Z,11.03
2018-03-27T16:15:09.803Z,11.77
2018-03-27T16:17:37.333Z,11.10
2018-03-27T16:20:04.832Z,13.27
2018-03-27T16:22:32.376Z,11.83
2018-03-27T16:25:00.852Z,10.90
2018-03-27T16:27:28.381Z,11.50
2018-03-27T16:29:55.880Z,10.77
2018-03-27T16:32:23.427Z,11.87
2018-03-27T16:34:50.941Z,11.17
2018-03-27T16:37:18.516Z,12.07
2018-03-27T16:39:46.020Z,10.40
2018-03-27T16:42:13.509Z,13.23
2018-03-27T16:44:41.035Z,11.57
2018-03-27T16:47:08.611Z,12.47
2018-03-27T16:49:36.123Z,11.37
2018-03-27T16:52:03.616Z,12.93
2018-03-27T16:54:31.135Z,12.93
2018-03-27T16:56:58.645Z,11.40
2018-03-27T16:59:26.164Z,10.63
2018-03-27T17:01:53.674Z,13.73
2018-03-27T17:04:21.215Z,12.17
2018-03-27T17:06:48.714Z,11.80
2018-03-27T17:09:16.271Z,11.87
2018-03-27T17:11:43.788Z,12.27
2018-03-27T17:14:11.299Z,12.60
2018-03-27T17:16:38.929Z,13.20
2018-03-27T17:19:06.452Z,14.47
2018-03-27T17:21:34.051Z,11.90
2018-03-27T17:24:01.564Z,11.03
2018-03-27T17:26:29.056Z,12.10
2018-03-27T17:28:56.577Z,13.50
2018-03-27T17:31:24.111Z,12.37
2018-03-27T17:33:51.637Z,12.73
2018-03-27T17:36:19.139Z,17.10
2018-03-27T17:38:46.779Z,16.70
2018-03-27T17:41:14.304Z,14.83
2018-03-27T17:43:41.825Z,13.40
2018-03-27T17:46:09.327Z,14.63
2018-03-27T17:48:36.865Z,12.47
2018-03-27T17:51:04.372Z,12.33
2018-03-27T17:53:31.884Z,12.77
2018-03-27T17:58:31.459Z,14.70
2018-03-27T18:00:59.063Z,14.07
2018-03-27T18:03:26.578Z,15.60
2018-03-27T18:05:54.112Z,14.93
2018-03-27T18:08:21.600Z,14.13
2018-03-27T18:10:49.128Z,14.77
2018-03-27T18:13:16.621Z,13.63
2018-03-27T18:15:44.137Z,18.27
2018-03-27T18:18:11.652Z,15.60
2018-03-27T18:20:39.174Z,15.03
2018-03-27T18:23:06.664Z,13.53
2018-03-27T18:25:34.228Z,14.00
2018-03-27T18:28:01.738Z,14.93
2018-03-27T18:30:29.316Z,17.33
2018-03-27T18:32:56.828Z,13.20
2018-03-27T18:35:24.353Z,12.10
2018-03-27T18:37:51.846Z,11.53
2018-03-27T18:40:19.613Z,11.43
2018-03-27T18:42:47.216Z,12.40
2018-03-27T18:45:14.740Z,13.87
2018-03-27T18:47:42.244Z,13.27
2018-03-27T18:50:09.772Z,13.57
2018-03-27T18:52:37.264Z,12.93
2018-03-27T18:55:04.810Z,13.60
2018-03-27T18:57:32.306Z,11.90
2018-03-27T18:59:59.813Z,17.13
2018-03-27T19:02:27.334Z,15.07
2018-03-27T19:04:54.862Z,14.60
2018-03-27T19:07:22.381Z,15.60
2018-03-27T19:09:49.903Z,14.23
2018-03-27T19:12:17.420Z,14.63
2018-03-27T19:14:44.991Z,12.67
2018-03-27T19:17:12.503Z,14.83
2018-03-27T19:19:40.021Z,13.70
2018-03-27T19:22:07.536Z,13.90
2018-03-27T19:24:35.132Z,13.40
2018-03-27T19:27:02.654Z,13.00
2018-03-27T19:29:30.175Z,13.00
2018-03-27T19:31:57.695Z,14.07
2018-03-27T19:34:25.192Z,11.50
2018-03-27T19:36:52.708Z,12.80
2018-03-27T19:39:20.314Z,12.73
2018-03-27T19:41:47.827Z,12.67
2018-03-27T19:44:15.330Z,13.50
2018-03-27T19:46:42.842Z,14.37
2018-03-27T19:49:10.341Z,12.67
2018-03-27T19:51:37.861Z,14.13
2018-03-27T19:54:05.384Z,14.57
2018-03-27T19:56:32.902Z,13.63
2018-03-27T19:59:00.413Z,12.30
2018-03-27T20:01:27.925Z,12.50
2018-03-27T20:03:55.411Z,12.10
2018-03-27T20:06:22.920Z,13.20
2018-03-27T20:08:50.458Z,12.60
2018-03-27T20:11:18.025Z,13.07
2018-03-27T20:13:45.514Z,12.73
2018-03-27T20:16:13.043Z,13.53
2018-03-27T20:18:40.590Z,13.20
2018-03-27T20:21:08.083Z,13.53
2018-03-27T20:23:35.592Z,13.20
2018-03-27T20:26:03.084Z,13.83
2018-03-27T20:28:30.620Z,12.83
2018-03-27T20:30:58.117Z,11.63
2018-03-27T20:33:25.630Z,12.97
2018-03-27T20:35:53.135Z,11.87
2018-03-27T20:38:20.643Z,11.50
2018-03-27T20:40:48.168Z,11.97
2018-03-27T20:43:15.695Z,12.03
2018-03-27T20:45:43.219Z,12.33
2018-03-27T20:48:10.763Z,12.23
2018-03-27T20:50:38.347Z,12.43
2018-03-27T20:53:05.857Z,11.30
2018-03-27T20:55:33.354Z,11.10
2018-03-27T20:58:01.865Z,11.23
2018-03-27T21:00:29.374Z,10.37
2018-03-27T21:02:56.892Z,7.83
2018-03-27T21:05:24.394Z,8.87
2018-03-27T21:07:51.930Z,9.70
2018-03-27T21:10:19.428Z,8.53
2018-03-27T21:12:46.936Z,8.60
2018-03-27T21:15:14.460Z,8.10
2018-03-27T21:17:41.980Z,8.20
2018-03-27T21:20:09.532Z,7.67
2018-03-27T21:22:37.031Z,8.70
2018-03-27T21:25:04.538Z,8.03
2018-03-27T21:27:32.992Z,7.10
2018-03-27T21:30:00.547Z,7.50
2018-03-27T21:32:28.074Z,7.80
2018-03-27T21:34:55.585Z,7.30
2018-03-27T21:37:23.086Z,6.23
2018-03-27T21:39:50.683Z,6.80
2018-03-27T21:42:18.189Z,7.60
2018-03-27T21:44:45.698Z,7.97
2018-03-27T21:47:13.208Z,9.47
2018-03-27T21:49:40.735Z,8.57
2018-03-27T21:52:08.260Z,10.70
2018-03-27T21:54:35.771Z,10.13
2018-03-27T21:57:03.398Z,11.23
2018-03-27T21:59:30.911Z,11.43
2018-03-27T22:01:58.507Z,12.80
2018-03-27T22:04:26.031Z,13.17
2018-03-27T22:06:53.519Z,12.33
2018-03-27T22:09:21.057Z,11.67
2018-03-27T22:11:48.599Z,12.00
2018-03-27T22:14:16.142Z,12.33
2018-03-27T22:16:43.651Z,13.20
2018-03-27T22:19:11.164Z,14.40
2018-03-27T22:21:38.672Z,13.00
2018-03-27T22:24:06.196Z,13.43
2018-03-27T22:26:33.817Z,12.77
2018-03-27T22:29:01.355Z,13.80
2018-03-27T22:31:28.938Z,14.03
2018-03-27T22:33:56.416Z,14.63
2018-03-27T22:36:23.996Z,13.13
2018-03-27T22:38:51.492Z,13.23
2018-03-27T22:41:19.068Z,13.63
2018-03-27T22:43:46.555Z,13.97
2018-03-27T22:46:14.088Z,16.13
2018-03-27T22:48:41.593Z,14.67
2018-03-27T22:51:09.136Z,13.30
2018-03-27T22:53:36.631Z,14.80
2018-03-27T22:56:04.374Z,13.87
2018-03-27T22:58:31.868Z,14.47
2018-03-27T23:00:59.544Z,16.17
2018-03-27T23:03:27.031Z,15.57
2018-03-27T23:05:54.547Z,15.20
2018-03-27T23:08:22.031Z,15.30
2018-03-27T23:10:49.566Z,15.10
2018-03-27T23:13:17.123Z,14.60
2018-03-27T23:15:44.630Z,13.60
2018-03-27T23:18:12.116Z,14.37
2018-03-27T23:20:39.700Z,12.97
2018-03-27T23:23:07.200Z,13.23
2018-03-27T23:25:34.723Z,12.67
2018-03-27T23:28:02.220Z,12.47
2018-03-27T23:30:29.707Z,12.47
2018-03-27T23:32:57.287Z,11.30
2018-03-27T23:35:24.771Z,11.37
2018-03-27T23:37:52.434Z,10.57
2018-03-27T23:40:19.966Z,10.67
2018-03-27T23:42:47.490Z,9.63
2018-03-27T23:45:14.980Z,10.50
2018-03-27T23:47:42.500Z,8.67
2018-03-27T23:50:10.019Z,8.73
2018-03-27T23:52:37.548Z,8.00
2018-03-27T23:55:05.111Z,8.23
2018-03-27T23:57:32.615Z,7.23
